sensor_id;sensor_type;location;lat;lon;timestamp;temperature;humidity
56046;DHT22;41913;51.030;3.706;2023-08-31T00:00:44;22.90;82.30
56046;DHT22;41913;51.030;3.706;2023-08-31T00:03:12;22.90;82.30
56046;DHT22;41913;51.030;3.706;2023-08-31T00:05:41;22.90;82.30
56046;DHT22;41913;51.030;3.706;2023-08-31T00:08:07;22.90;82.30
56046;DHT22;41913;51.030;3.706;2023-08-31T00:10:36;22.90;82.20
56046;DHT22;41913;51.030;3.706;2023-08-31T00:13:03;22.90;82.80
56046;DHT22;41913;51.030;3.706;2023-08-31T00:15:29;22.90;82.20
56046;DHT22;41913;51.030;3.706;2023-08-31T00:17:58;22.90;82.20
56046;DHT22;41913;51.030;3.706;2023-08-31T00:20:24;22.90;82.20
56046;DHT22;41913;51.030;3.706;2023-08-31T00:22:50;22.90;82.20
56046;DHT22;41913;51.030;3.706;2023-08-31T00:25:16;22.90;82.20
56046;DHT22;41913;51.030;3.706;2023-08-31T00:27:42;22.90;82.20
56046;DHT22;41913;51.030;3.706;2023-08-31T00:30:09;22.90;82.20
56046;DHT22;41913;51.030;3.706;2023-08-31T00:32:36;22.90;82.20
56046;DHT22;41913;51.030;3.706;2023-08-31T00:35:03;22.90;82.20
56046;DHT22;41913;51.030;3.706;2023-08-31T00:37:29;22.90;82.20
56046;DHT22;41913;51.030;3.706;2023-08-31T00:39:55;22.90;82.20
56046;DHT22;41913;51.030;3.706;2023-08-31T00:42:20;22.90;82.20
56046;DHT22;41913;51.030;3.706;2023-08-31T00:44:47;22.90;82.20
56046;DHT22;41913;51.030;3.706;2023-08-31T00:47:14;22.80;82.20
56046;DHT22;41913;51.030;3.706;2023-08-31T00:49:41;22.80;82.20
56046;DHT22;41913;51.030;3.706;2023-08-31T00:52:07;22.80;82.70
56046;DHT22;41913;51.030;3.706;2023-08-31T00:54:34;22.90;82.20
56046;DHT22;41913;51.030;3.706;2023-08-31T00:57:00;22.80;82.20
56046;DHT22;41913;51.030;3.706;2023-08-31T00:59:26;22.80;82.20
56046;DHT22;41913;51.030;3.706;2023-08-31T01:04:49;22.80;82.20
56046;DHT22;41913;51.030;3.706;2023-08-31T01:13:15;22.80;82.10
56046;DHT22;41913;51.030;3.706;2023-08-31T01:15:46;22.80;82.20
56046;DHT22;41913;51.030;3.706;2023-08-31T01:18:14;22.80;82.10
56046;DHT22;41913;51.030;3.706;2023-08-31T01:23:45;22.80;82.20
56046;DHT22;41913;51.030;3.706;2023-08-31T01:26:11;22.80;82.20
56046;DHT22;41913;51.030;3.706;2023-08-31T01:28:38;22.80;82.20
56046;DHT22;41913;51.030;3.706;2023-08-31T01:31:05;22.80;82.20
56046;DHT22;41913;51.030;3.706;2023-08-31T01:33:34;22.80;82.20
56046;DHT22;41913;51.030;3.706;2023-08-31T01:36:03;22.80;82.20
56046;DHT22;41913;51.030;3.706;2023-08-31T01:38:32;22.80;82.20
56046;DHT22;41913;51.030;3.706;2023-08-31T01:41:06;22.80;82.20
56046;DHT22;41913;51.030;3.706;2023-08-31T01:43:34;22.80;82.20
56046;DHT22;41913;51.030;3.706;2023-08-31T01:46:00;22.80;82.10
56046;DHT22;41913;51.030;3.706;2023-08-31T01:48:27;22.80;82.10
56046;DHT22;41913;51.030;3.706;2023-08-31T01:50:52;22.70;82.10
56046;DHT22;41913;51.030;3.706;2023-08-31T01:53:18;22.80;82.10
56046;DHT22;41913;51.030;3.706;2023-08-31T01:55:44;22.80;82.10
56046;DHT22;41913;51.030;3.706;2023-08-31T01:58:10;22.70;82.60
56046;DHT22;41913;51.030;3.706;2023-08-31T02:00:35;22.70;82.00
56046;DHT22;41913;51.030;3.706;2023-08-31T02:03:04;22.70;82.00
56046;DHT22;41913;51.030;3.706;2023-08-31T02:05:29;22.80;82.10
56046;DHT22;41913;51.030;3.706;2023-08-31T02:07:55;22.70;82.00
56046;DHT22;41913;51.030;3.706;2023-08-31T02:10:21;22.70;82.00
56046;DHT22;41913;51.030;3.706;2023-08-31T02:12:46;22.80;82.00
56046;DHT22;41913;51.030;3.706;2023-08-31T02:15:12;22.70;82.00
56046;DHT22;41913;51.030;3.706;2023-08-31T02:17:38;22.70;82.00
56046;DHT22;41913;51.030;3.706;2023-08-31T02:20:04;22.80;82.00
56046;DHT22;41913;51.030;3.706;2023-08-31T02:22:34;22.80;82.00
56046;DHT22;41913;51.030;3.706;2023-08-31T02:24:59;22.70;81.90
56046;DHT22;41913;51.030;3.706;2023-08-31T02:27:26;22.70;81.90
56046;DHT22;41913;51.030;3.706;2023-08-31T02:29:53;22.70;81.90
56046;DHT22;41913;51.030;3.706;2023-08-31T02:32:19;22.70;81.90
56046;DHT22;41913;51.030;3.706;2023-08-31T02:34:45;22.70;82.00
56046;DHT22;41913;51.030;3.706;2023-08-31T02:37:11;22.70;82.00
56046;DHT22;41913;51.030;3.706;2023-08-31T02:39:36;22.70;82.20
56046;DHT22;41913;51.030;3.706;2023-08-31T02:42:02;22.70;81.90
56046;DHT22;41913;51.030;3.706;2023-08-31T02:44:28;22.70;81.90
56046;DHT22;41913;51.030;3.706;2023-08-31T02:46:53;22.70;81.80
56046;DHT22;41913;51.030;3.706;2023-08-31T02:49:19;22.70;81.90
56046;DHT22;41913;51.030;3.706;2023-08-31T02:51:45;22.70;81.90
56046;DHT22;41913;51.030;3.706;2023-08-31T02:54:10;22.70;81.80
56046;DHT22;41913;51.030;3.706;2023-08-31T02:56:36;22.70;81.80
56046;DHT22;41913;51.030;3.706;2023-08-31T02:59:02;22.70;81.80
56046;DHT22;41913;51.030;3.706;2023-08-31T03:01:27;22.70;81.80
56046;DHT22;41913;51.030;3.706;2023-08-31T03:03:53;22.70;81.80
56046;DHT22;41913;51.030;3.706;2023-08-31T03:06:19;22.70;81.80
56046;DHT22;41913;51.030;3.706;2023-08-31T03:08:44;22.70;81.80
56046;DHT22;41913;51.030;3.706;2023-08-31T03:11:11;22.70;81.80
56046;DHT22;41913;51.030;3.706;2023-08-31T03:13:37;22.70;81.80
56046;DHT22;41913;51.030;3.706;2023-08-31T03:16:03;22.70;81.70
56046;DHT22;41913;51.030;3.706;2023-08-31T03:18:29;22.80;81.70
56046;DHT22;41913;51.030;3.706;2023-08-31T03:20:55;22.70;81.70
56046;DHT22;41913;51.030;3.706;2023-08-31T03:23:21;22.80;81.70
56046;DHT22;41913;51.030;3.706;2023-08-31T03:25:47;22.80;81.70
56046;DHT22;41913;51.030;3.706;2023-08-31T03:28:13;22.80;81.60
56046;DHT22;41913;51.030;3.706;2023-08-31T03:30:39;22.80;81.60
56046;DHT22;41913;51.030;3.706;2023-08-31T03:33:05;22.80;81.60
56046;DHT22;41913;51.030;3.706;2023-08-31T03:35:34;22.80;81.60
56046;DHT22;41913;51.030;3.706;2023-08-31T03:38:00;22.80;81.60
56046;DHT22;41913;51.030;3.706;2023-08-31T03:40:26;22.80;81.60
56046;DHT22;41913;51.030;3.706;2023-08-31T03:42:51;22.80;81.60
56046;DHT22;41913;51.030;3.706;2023-08-31T03:45:19;22.80;81.60
56046;DHT22;41913;51.030;3.706;2023-08-31T03:47:45;22.80;81.60
56046;DHT22;41913;51.030;3.706;2023-08-31T03:50:11;22.80;81.60
56046;DHT22;41913;51.030;3.706;2023-08-31T03:52:36;22.80;81.60
56046;DHT22;41913;51.030;3.706;2023-08-31T03:55:02;22.80;81.60
56046;DHT22;41913;51.030;3.706;2023-08-31T03:57:28;22.80;81.60
56046;DHT22;41913;51.030;3.706;2023-08-31T03:59:54;22.80;81.70
56046;DHT22;41913;51.030;3.706;2023-08-31T04:02:19;22.80;81.70
56046;DHT22;41913;51.030;3.706;2023-08-31T04:04:45;22.80;81.70
56046;DHT22;41913;51.030;3.706;2023-08-31T04:07:11;22.80;81.70
56046;DHT22;41913;51.030;3.706;2023-08-31T04:09:36;22.80;81.80
56046;DHT22;41913;51.030;3.706;2023-08-31T04:12:02;22.70;81.70
56046;DHT22;41913;51.030;3.706;2023-08-31T04:14:28;22.80;81.80
56046;DHT22;41913;51.030;3.706;2023-08-31T04:16:57;22.80;81.80
56046;DHT22;41913;51.030;3.706;2023-08-31T04:19:22;22.80;81.80
56046;DHT22;41913;51.030;3.706;2023-08-31T04:21:48;22.80;81.70
56046;DHT22;41913;51.030;3.706;2023-08-31T04:24:14;22.80;81.70
56046;DHT22;41913;51.030;3.706;2023-08-31T04:26:40;22.70;81.60
56046;DHT22;41913;51.030;3.706;2023-08-31T04:29:05;22.80;81.70
56046;DHT22;41913;51.030;3.706;2023-08-31T04:31:32;22.80;81.70
56046;DHT22;41913;51.030;3.706;2023-08-31T04:33:57;22.70;81.90
56046;DHT22;41913;51.030;3.706;2023-08-31T04:36:24;22.70;81.90
56046;DHT22;41913;51.030;3.706;2023-08-31T04:38:51;22.70;81.90
56046;DHT22;41913;51.030;3.706;2023-08-31T04:41:17;22.70;81.80
56046;DHT22;41913;51.030;3.706;2023-08-31T04:43:43;22.70;81.80
56046;DHT22;41913;51.030;3.706;2023-08-31T04:46:09;22.70;81.70
56046;DHT22;41913;51.030;3.706;2023-08-31T04:48:35;22.70;81.70
56046;DHT22;41913;51.030;3.706;2023-08-31T04:51:02;22.70;81.70
56046;DHT22;41913;51.030;3.706;2023-08-31T04:53:29;22.70;81.80
56046;DHT22;41913;51.030;3.706;2023-08-31T04:55:55;22.70;81.90
56046;DHT22;41913;51.030;3.706;2023-08-31T04:58:21;22.70;81.90
56046;DHT22;41913;51.030;3.706;2023-08-31T05:00:47;22.80;81.90
56046;DHT22;41913;51.030;3.706;2023-08-31T05:03:14;22.80;81.90
56046;DHT22;41913;51.030;3.706;2023-08-31T05:05:39;22.90;81.80
56046;DHT22;41913;51.030;3.706;2023-08-31T05:08:07;22.90;81.80
56046;DHT22;41913;51.030;3.706;2023-08-31T05:10:33;22.90;81.60
56046;DHT22;41913;51.030;3.706;2023-08-31T05:12:59;23.00;81.60
56046;DHT22;41913;51.030;3.706;2023-08-31T05:15:25;23.00;81.50
56046;DHT22;41913;51.030;3.706;2023-08-31T05:17:53;23.00;81.40
56046;DHT22;41913;51.030;3.706;2023-08-31T05:20:19;23.10;81.30
56046;DHT22;41913;51.030;3.706;2023-08-31T05:22:46;23.10;81.30
56046;DHT22;41913;51.030;3.706;2023-08-31T05:25:12;23.10;81.20
56046;DHT22;41913;51.030;3.706;2023-08-31T05:27:38;23.20;81.10
56046;DHT22;41913;51.030;3.706;2023-08-31T05:30:04;23.20;81.00
56046;DHT22;41913;51.030;3.706;2023-08-31T05:32:30;23.30;81.10
56046;DHT22;41913;51.030;3.706;2023-08-31T05:34:56;23.30;81.00
56046;DHT22;41913;51.030;3.706;2023-08-31T05:37:22;23.30;80.90
56046;DHT22;41913;51.030;3.706;2023-08-31T05:39:48;23.30;80.90
56046;DHT22;41913;51.030;3.706;2023-08-31T05:42:15;23.30;80.80
56046;DHT22;41913;51.030;3.706;2023-08-31T05:44:43;23.30;80.90
56046;DHT22;41913;51.030;3.706;2023-08-31T05:47:10;23.30;80.80
56046;DHT22;41913;51.030;3.706;2023-08-31T05:49:36;23.30;80.80
56046;DHT22;41913;51.030;3.706;2023-08-31T05:52:02;23.30;80.60
56046;DHT22;41913;51.030;3.706;2023-08-31T05:54:28;23.30;80.60
56046;DHT22;41913;51.030;3.706;2023-08-31T05:56:54;23.30;80.50
56046;DHT22;41913;51.030;3.706;2023-08-31T05:59:20;23.40;80.60
56046;DHT22;41913;51.030;3.706;2023-08-31T06:01:46;23.40;80.60
56046;DHT22;41913;51.030;3.706;2023-08-31T06:04:13;23.50;80.60
56046;DHT22;41913;51.030;3.706;2023-08-31T06:06:39;23.50;80.70
56046;DHT22;41913;51.030;3.706;2023-08-31T06:09:04;23.50;80.70
56046;DHT22;41913;51.030;3.706;2023-08-31T06:11:33;23.50;81.00
56046;DHT22;41913;51.030;3.706;2023-08-31T06:13:58;23.50;81.30
56046;DHT22;41913;51.030;3.706;2023-08-31T06:16:24;23.60;81.40
56046;DHT22;41913;51.030;3.706;2023-08-31T06:18:50;23.60;81.40
56046;DHT22;41913;51.030;3.706;2023-08-31T06:21:16;23.60;81.40
56046;DHT22;41913;51.030;3.706;2023-08-31T06:23:42;23.60;81.30
56046;DHT22;41913;51.030;3.706;2023-08-31T06:26:08;23.70;81.40
56046;DHT22;41913;51.030;3.706;2023-08-31T06:28:33;23.60;81.70
56046;DHT22;41913;51.030;3.706;2023-08-31T06:30:59;23.70;81.80
56046;DHT22;41913;51.030;3.706;2023-08-31T06:33:25;23.60;81.60
56046;DHT22;41913;51.030;3.706;2023-08-31T06:35:51;23.60;81.40
56046;DHT22;41913;51.030;3.706;2023-08-31T06:38:19;23.50;81.40
56046;DHT22;41913;51.030;3.706;2023-08-31T06:40:46;23.50;81.60
56046;DHT22;41913;51.030;3.706;2023-08-31T06:43:12;23.50;81.60
56046;DHT22;41913;51.030;3.706;2023-08-31T06:45:38;23.40;81.80
56046;DHT22;41913;51.030;3.706;2023-08-31T06:48:04;23.40;81.70
56046;DHT22;41913;51.030;3.706;2023-08-31T06:50:29;23.40;81.60
56046;DHT22;41913;51.030;3.706;2023-08-31T06:52:55;23.30;81.50
56046;DHT22;41913;51.030;3.706;2023-08-31T06:55:21;23.30;81.50
56046;DHT22;41913;51.030;3.706;2023-08-31T06:57:47;23.30;81.50
56046;DHT22;41913;51.030;3.706;2023-08-31T07:00:12;23.30;81.60
56046;DHT22;41913;51.030;3.706;2023-08-31T07:02:41;23.30;81.70
56046;DHT22;41913;51.030;3.706;2023-08-31T07:05:08;23.30;81.70
56046;DHT22;41913;51.030;3.706;2023-08-31T07:07:34;23.20;81.70
56046;DHT22;41913;51.030;3.706;2023-08-31T07:10:00;23.30;81.80
56046;DHT22;41913;51.030;3.706;2023-08-31T07:12:25;23.20;81.90
56046;DHT22;41913;51.030;3.706;2023-08-31T07:14:51;23.20;81.90
56046;DHT22;41913;51.030;3.706;2023-08-31T07:17:20;23.20;82.00
56046;DHT22;41913;51.030;3.706;2023-08-31T07:19:46;23.20;82.00
56046;DHT22;41913;51.030;3.706;2023-08-31T07:22:12;23.20;82.10
56046;DHT22;41913;51.030;3.706;2023-08-31T07:24:37;23.10;82.00
56046;DHT22;41913;51.030;3.706;2023-08-31T07:27:04;23.10;82.00
56046;DHT22;41913;51.030;3.706;2023-08-31T07:29:30;23.10;82.00
56046;DHT22;41913;51.030;3.706;2023-08-31T07:31:56;23.10;82.10
56046;DHT22;41913;51.030;3.706;2023-08-31T07:34:22;23.10;82.20
56046;DHT22;41913;51.030;3.706;2023-08-31T07:36:48;23.10;82.30
56046;DHT22;41913;51.030;3.706;2023-08-31T07:39:14;23.10;82.30
56046;DHT22;41913;51.030;3.706;2023-08-31T07:41:43;23.00;82.30
56046;DHT22;41913;51.030;3.706;2023-08-31T07:44:09;23.10;82.50
56046;DHT22;41913;51.030;3.706;2023-08-31T07:46:34;23.00;82.50
56046;DHT22;41913;51.030;3.706;2023-08-31T07:49:00;23.00;82.50
56046;DHT22;41913;51.030;3.706;2023-08-31T07:51:26;23.00;82.50
56046;DHT22;41913;51.030;3.706;2023-08-31T07:53:52;23.10;82.60
56046;DHT22;41913;51.030;3.706;2023-08-31T07:56:18;23.10;82.60
56046;DHT22;41913;51.030;3.706;2023-08-31T07:58:44;23.10;82.90
56046;DHT22;41913;51.030;3.706;2023-08-31T08:01:10;23.10;83.40
56046;DHT22;41913;51.030;3.706;2023-08-31T08:03:35;23.10;83.90
56046;DHT22;41913;51.030;3.706;2023-08-31T08:06:01;23.10;84.00
56046;DHT22;41913;51.030;3.706;2023-08-31T08:08:27;23.20;84.00
56046;DHT22;41913;51.030;3.706;2023-08-31T08:10:53;23.20;84.10
56046;DHT22;41913;51.030;3.706;2023-08-31T08:13:19;23.20;84.20
56046;DHT22;41913;51.030;3.706;2023-08-31T08:15:45;23.20;84.80
56046;DHT22;41913;51.030;3.706;2023-08-31T08:18:11;23.30;84.60
56046;DHT22;41913;51.030;3.706;2023-08-31T08:20:37;23.20;84.10
56046;DHT22;41913;51.030;3.706;2023-08-31T08:23:03;23.30;83.70
56046;DHT22;41913;51.030;3.706;2023-08-31T08:25:29;23.30;83.70
56046;DHT22;41913;51.030;3.706;2023-08-31T08:27:55;23.20;83.60
56046;DHT22;41913;51.030;3.706;2023-08-31T08:30:20;23.20;83.60
56046;DHT22;41913;51.030;3.706;2023-08-31T08:32:46;23.20;83.60
56046;DHT22;41913;51.030;3.706;2023-08-31T08:35:12;23.20;83.70
56046;DHT22;41913;51.030;3.706;2023-08-31T08:37:37;23.20;83.80
56046;DHT22;41913;51.030;3.706;2023-08-31T08:40:03;23.20;84.30
56046;DHT22;41913;51.030;3.706;2023-08-31T08:42:30;23.20;84.30
56046;DHT22;41913;51.030;3.706;2023-08-31T08:45:02;23.20;84.80
56046;DHT22;41913;51.030;3.706;2023-08-31T08:47:28;23.20;84.20
56046;DHT22;41913;51.030;3.706;2023-08-31T08:49:56;23.10;84.20
56046;DHT22;41913;51.030;3.706;2023-08-31T08:52:23;23.10;84.30
56046;DHT22;41913;51.030;3.706;2023-08-31T08:54:50;23.10;84.40
56046;DHT22;41913;51.030;3.706;2023-08-31T08:57:16;23.10;84.50
56046;DHT22;41913;51.030;3.706;2023-08-31T08:59:42;23.10;84.70
56046;DHT22;41913;51.030;3.706;2023-08-31T09:02:10;23.00;84.80
56046;DHT22;41913;51.030;3.706;2023-08-31T09:04:37;23.00;84.90
56046;DHT22;41913;51.030;3.706;2023-08-31T09:07:02;23.00;85.00
56046;DHT22;41913;51.030;3.706;2023-08-31T09:09:28;23.00;85.10
56046;DHT22;41913;51.030;3.706;2023-08-31T09:11:55;23.00;85.10
56046;DHT22;41913;51.030;3.706;2023-08-31T09:14:23;23.00;85.10
56046;DHT22;41913;51.030;3.706;2023-08-31T09:16:51;23.00;85.10
56046;DHT22;41913;51.030;3.706;2023-08-31T09:19:20;23.00;85.10
56046;DHT22;41913;51.030;3.706;2023-08-31T09:21:51;23.00;85.20
56046;DHT22;41913;51.030;3.706;2023-08-31T09:24:17;23.00;85.00
56046;DHT22;41913;51.030;3.706;2023-08-31T09:26:48;23.00;84.80
56046;DHT22;41913;51.030;3.706;2023-08-31T09:29:15;23.00;84.70
56046;DHT22;41913;51.030;3.706;2023-08-31T09:31:44;23.00;84.80
56046;DHT22;41913;51.030;3.706;2023-08-31T09:34:11;23.00;84.90
56046;DHT22;41913;51.030;3.706;2023-08-31T09:36:37;23.00;85.20
56046;DHT22;41913;51.030;3.706;2023-08-31T09:39:05;23.00;85.30
56046;DHT22;41913;51.030;3.706;2023-08-31T09:41:32;23.00;85.50
56046;DHT22;41913;51.030;3.706;2023-08-31T09:44:19;23.00;85.70
56046;DHT22;41913;51.030;3.706;2023-08-31T09:46:45;23.10;85.60
56046;DHT22;41913;51.030;3.706;2023-08-31T09:49:16;23.00;85.30
56046;DHT22;41913;51.030;3.706;2023-08-31T09:51:44;23.00;85.00
56046;DHT22;41913;51.030;3.706;2023-08-31T09:54:14;23.00;84.60
56046;DHT22;41913;51.030;3.706;2023-08-31T09:56:43;23.00;84.50
56046;DHT22;41913;51.030;3.706;2023-08-31T09:59:10;23.00;84.40
56046;DHT22;41913;51.030;3.706;2023-08-31T10:01:36;23.00;84.00
56046;DHT22;41913;51.030;3.706;2023-08-31T10:04:03;23.10;83.60
56046;DHT22;41913;51.030;3.706;2023-08-31T10:06:31;23.00;83.80
56046;DHT22;41913;51.030;3.706;2023-08-31T10:08:57;23.00;83.60
56046;DHT22;41913;51.030;3.706;2023-08-31T10:11:26;23.00;84.10
56046;DHT22;41913;51.030;3.706;2023-08-31T10:13:53;22.90;83.60
56046;DHT22;41913;51.030;3.706;2023-08-31T10:16:21;22.90;83.70
56046;DHT22;41913;51.030;3.706;2023-08-31T10:18:47;22.90;83.70
56046;DHT22;41913;51.030;3.706;2023-08-31T10:21:16;23.00;83.80
56046;DHT22;41913;51.030;3.706;2023-08-31T10:23:46;23.00;83.70
56046;DHT22;41913;51.030;3.706;2023-08-31T10:26:13;22.90;83.70
56046;DHT22;41913;51.030;3.706;2023-08-31T10:28:47;22.90;83.60
56046;DHT22;41913;51.030;3.706;2023-08-31T10:31:17;22.90;83.50
56046;DHT22;41913;51.030;3.706;2023-08-31T10:33:54;23.00;83.10
56046;DHT22;41913;51.030;3.706;2023-08-31T10:36:21;23.00;82.90
56046;DHT22;41913;51.030;3.706;2023-08-31T10:39:00;23.00;82.90
56046;DHT22;41913;51.030;3.706;2023-08-31T10:41:33;23.00;82.80
56046;DHT22;41913;51.030;3.706;2023-08-31T10:43:59;23.00;82.40
56046;DHT22;41913;51.030;3.706;2023-08-31T10:48:55;23.00;82.30
56046;DHT22;41913;51.030;3.706;2023-08-31T10:51:23;23.00;82.20
56046;DHT22;41913;51.030;3.706;2023-08-31T10:53:49;23.20;82.00
56046;DHT22;41913;51.030;3.706;2023-08-31T10:56:18;23.20;81.90
56046;DHT22;41913;51.030;3.706;2023-08-31T10:59:05;23.20;81.70
56046;DHT22;41913;51.030;3.706;2023-08-31T11:04:20;23.00;82.00
56046;DHT22;41913;51.030;3.706;2023-08-31T11:06:46;23.00;82.10
56046;DHT22;41913;51.030;3.706;2023-08-31T11:09:21;23.00;82.30
56046;DHT22;41913;51.030;3.706;2023-08-31T11:11:47;23.00;82.30
56046;DHT22;41913;51.030;3.706;2023-08-31T11:14:14;23.00;82.20
56046;DHT22;41913;51.030;3.706;2023-08-31T11:16:42;22.90;82.20
56046;DHT22;41913;51.030;3.706;2023-08-31T11:19:08;23.00;82.20
56046;DHT22;41913;51.030;3.706;2023-08-31T11:21:36;23.00;82.10
56046;DHT22;41913;51.030;3.706;2023-08-31T11:24:02;23.00;82.10
56046;DHT22;41913;51.030;3.706;2023-08-31T11:26:31;23.00;82.00
56046;DHT22;41913;51.030;3.706;2023-08-31T11:28:57;23.10;81.80
56046;DHT22;41913;51.030;3.706;2023-08-31T11:31:24;23.10;81.70
56046;DHT22;41913;51.030;3.706;2023-08-31T11:33:50;23.10;81.70
56046;DHT22;41913;51.030;3.706;2023-08-31T11:36:16;23.00;81.80
56046;DHT22;41913;51.030;3.706;2023-08-31T11:38:44;23.00;81.90
56046;DHT22;41913;51.030;3.706;2023-08-31T11:41:10;23.00;82.10
56046;DHT22;41913;51.030;3.706;2023-08-31T11:43:37;22.90;82.30
56046;DHT22;41913;51.030;3.706;2023-08-31T11:46:03;22.90;82.40
56046;DHT22;41913;51.030;3.706;2023-08-31T11:48:31;23.00;82.30
56046;DHT22;41913;51.030;3.706;2023-08-31T11:50:57;22.90;82.20
56046;DHT22;41913;51.030;3.706;2023-08-31T11:53:24;22.90;82.30
56046;DHT22;41913;51.030;3.706;2023-08-31T11:55:51;22.90;82.40
56046;DHT22;41913;51.030;3.706;2023-08-31T11:58:17;22.90;82.30
56046;DHT22;41913;51.030;3.706;2023-08-31T12:00:43;22.90;82.20
56046;DHT22;41913;51.030;3.706;2023-08-31T12:03:09;22.90;82.60
56046;DHT22;41913;51.030;3.706;2023-08-31T12:05:48;23.00;83.20
56046;DHT22;41913;51.030;3.706;2023-08-31T12:08:14;23.00;83.20
56046;DHT22;41913;51.030;3.706;2023-08-31T12:10:41;23.00;83.10
56046;DHT22;41913;51.030;3.706;2023-08-31T12:13:08;22.90;82.90
56046;DHT22;41913;51.030;3.706;2023-08-31T12:15:34;23.00;82.90
56046;DHT22;41913;51.030;3.706;2023-08-31T12:18:07;23.00;82.80
56046;DHT22;41913;51.030;3.706;2023-08-31T12:20:33;23.00;82.90
56046;DHT22;41913;51.030;3.706;2023-08-31T12:23:07;23.00;82.70
56046;DHT22;41913;51.030;3.706;2023-08-31T12:25:35;23.10;82.80
56046;DHT22;41913;51.030;3.706;2023-08-31T12:28:01;23.00;82.60
56046;DHT22;41913;51.030;3.706;2023-08-31T12:30:27;23.10;82.70
56046;DHT22;41913;51.030;3.706;2023-08-31T12:32:53;23.10;82.60
56046;DHT22;41913;51.030;3.706;2023-08-31T12:35:19;23.10;82.60
56046;DHT22;41913;51.030;3.706;2023-08-31T12:37:45;23.10;82.70
56046;DHT22;41913;51.030;3.706;2023-08-31T12:40:11;23.10;82.70
56046;DHT22;41913;51.030;3.706;2023-08-31T12:42:37;23.10;82.60
56046;DHT22;41913;51.030;3.706;2023-08-31T12:45:02;23.10;82.70
56046;DHT22;41913;51.030;3.706;2023-08-31T12:47:31;23.10;83.00
56046;DHT22;41913;51.030;3.706;2023-08-31T12:49:56;23.00;82.80
56046;DHT22;41913;51.030;3.706;2023-08-31T12:52:23;23.00;82.90
56046;DHT22;41913;51.030;3.706;2023-08-31T12:54:49;23.00;83.00
56046;DHT22;41913;51.030;3.706;2023-08-31T12:57:15;23.00;83.10
56046;DHT22;41913;51.030;3.706;2023-08-31T12:59:41;23.00;83.20
56046;DHT22;41913;51.030;3.706;2023-08-31T13:02:08;23.00;83.20
56046;DHT22;41913;51.030;3.706;2023-08-31T13:04:37;23.20;83.10
56046;DHT22;41913;51.030;3.706;2023-08-31T13:07:03;23.20;83.00
56046;DHT22;41913;51.030;3.706;2023-08-31T13:09:30;23.20;83.10
56046;DHT22;41913;51.030;3.706;2023-08-31T13:11:56;23.20;83.20
56046;DHT22;41913;51.030;3.706;2023-08-31T13:14:22;23.20;83.10
56046;DHT22;41913;51.030;3.706;2023-08-31T13:16:48;23.10;83.10
56046;DHT22;41913;51.030;3.706;2023-08-31T13:19:14;23.00;83.30
56046;DHT22;41913;51.030;3.706;2023-08-31T13:21:39;23.10;83.50
56046;DHT22;41913;51.030;3.706;2023-08-31T13:24:05;23.00;83.50
56046;DHT22;41913;51.030;3.706;2023-08-31T13:26:31;23.00;83.40
56046;DHT22;41913;51.030;3.706;2023-08-31T13:28:57;23.10;83.80
56046;DHT22;41913;51.030;3.706;2023-08-31T13:31:23;23.00;83.40
56046;DHT22;41913;51.030;3.706;2023-08-31T13:33:49;23.00;82.90
56046;DHT22;41913;51.030;3.706;2023-08-31T13:36:14;23.00;82.40
56046;DHT22;41913;51.030;3.706;2023-08-31T13:38:40;23.00;82.20
56046;DHT22;41913;51.030;3.706;2023-08-31T13:41:06;23.00;82.40
56046;DHT22;41913;51.030;3.706;2023-08-31T13:43:33;23.00;82.50
56046;DHT22;41913;51.030;3.706;2023-08-31T13:45:58;23.00;82.60
56046;DHT22;41913;51.030;3.706;2023-08-31T13:48:24;23.10;82.60
56046;DHT22;41913;51.030;3.706;2023-08-31T13:50:50;23.10;82.60
56046;DHT22;41913;51.030;3.706;2023-08-31T13:53:16;23.00;82.50
56046;DHT22;41913;51.030;3.706;2023-08-31T13:55:42;23.10;82.70
56046;DHT22;41913;51.030;3.706;2023-08-31T13:58:08;23.10;82.80
56046;DHT22;41913;51.030;3.706;2023-08-31T14:00:35;23.10;82.80
56046;DHT22;41913;51.030;3.706;2023-08-31T14:03:01;23.10;82.80
56046;DHT22;41913;51.030;3.706;2023-08-31T14:05:30;23.10;82.80
56046;DHT22;41913;51.030;3.706;2023-08-31T14:07:56;23.00;82.70
56046;DHT22;41913;51.030;3.706;2023-08-31T14:10:24;23.00;82.80
56046;DHT22;41913;51.030;3.706;2023-08-31T14:12:50;23.00;82.90
56046;DHT22;41913;51.030;3.706;2023-08-31T14:15:16;23.00;82.80
56046;DHT22;41913;51.030;3.706;2023-08-31T14:17:41;23.00;82.90
56046;DHT22;41913;51.030;3.706;2023-08-31T14:20:07;23.00;82.90
56046;DHT22;41913;51.030;3.706;2023-08-31T14:22:35;23.00;82.80
56046;DHT22;41913;51.030;3.706;2023-08-31T14:25:04;23.00;82.80
56046;DHT22;41913;51.030;3.706;2023-08-31T14:27:29;23.00;82.80
56046;DHT22;41913;51.030;3.706;2023-08-31T14:29:57;23.00;82.80
56046;DHT22;41913;51.030;3.706;2023-08-31T14:32:23;23.00;82.70
56046;DHT22;41913;51.030;3.706;2023-08-31T14:34:49;23.00;82.70
56046;DHT22;41913;51.030;3.706;2023-08-31T14:37:15;23.00;82.70
56046;DHT22;41913;51.030;3.706;2023-08-31T14:39:41;23.00;82.80
56046;DHT22;41913;51.030;3.706;2023-08-31T14:42:06;23.00;82.80
56046;DHT22;41913;51.030;3.706;2023-08-31T14:44:32;23.00;82.80
56046;DHT22;41913;51.030;3.706;2023-08-31T14:46:58;23.00;82.80
56046;DHT22;41913;51.030;3.706;2023-08-31T14:49:24;23.00;82.80
56046;DHT22;41913;51.030;3.706;2023-08-31T14:51:50;23.10;82.80
56046;DHT22;41913;51.030;3.706;2023-08-31T14:54:16;23.10;83.00
56046;DHT22;41913;51.030;3.706;2023-08-31T14:56:42;23.10;82.80
56046;DHT22;41913;51.030;3.706;2023-08-31T14:59:07;23.10;82.80
56046;DHT22;41913;51.030;3.706;2023-08-31T15:01:33;23.10;82.80
56046;DHT22;41913;51.030;3.706;2023-08-31T15:03:59;23.10;82.70
56046;DHT22;41913;51.030;3.706;2023-08-31T15:06:24;23.10;82.70
56046;DHT22;41913;51.030;3.706;2023-08-31T15:08:50;23.10;82.90
56046;DHT22;41913;51.030;3.706;2023-08-31T15:11:16;23.10;82.80
56046;DHT22;41913;51.030;3.706;2023-08-31T15:13:42;23.10;82.80
56046;DHT22;41913;51.030;3.706;2023-08-31T15:16:07;23.10;82.80
56046;DHT22;41913;51.030;3.706;2023-08-31T15:18:33;23.10;82.80
56046;DHT22;41913;51.030;3.706;2023-08-31T15:21:00;23.10;82.80
56046;DHT22;41913;51.030;3.706;2023-08-31T15:23:26;23.10;82.90
56046;DHT22;41913;51.030;3.706;2023-08-31T15:25:52;23.10;82.90
56046;DHT22;41913;51.030;3.706;2023-08-31T15:28:24;23.20;82.90
56046;DHT22;41913;51.030;3.706;2023-08-31T15:30:50;23.10;82.70
56046;DHT22;41913;51.030;3.706;2023-08-31T15:33:15;23.10;82.70
56046;DHT22;41913;51.030;3.706;2023-08-31T15:35:41;23.10;82.60
56046;DHT22;41913;51.030;3.706;2023-08-31T15:38:06;23.10;82.60
56046;DHT22;41913;51.030;3.706;2023-08-31T15:40:32;23.10;82.60
56046;DHT22;41913;51.030;3.706;2023-08-31T15:42:58;23.10;82.70